createdAt,value
2019-01-19T00:02:52.542Z,95381.08
2019-01-19T00:06:24.507Z,95371.65
2019-01-19T00:09:22.510Z,95384.65
2019-01-19T00:13:10.545Z,95375.73
2019-01-19T00:16:10.459Z,95386.05
2019-01-19T00:20:00.519Z,95377.77
2019-01-19T00:23:11.808Z,95372.47
2019-01-19T00:26:58.635Z,95365.30
2019-01-19T00:30:19.296Z,95365.29
2019-01-19T00:34:08.457Z,95363.42
2019-01-19T00:37:06.110Z,95361.73
2019-01-19T00:40:43.270Z,95364.63
2019-01-19T00:43:35.061Z,95359.06
2019-01-19T00:46:46.888Z,95357.42
2019-01-19T00:49:55.332Z,95355.34
2019-01-19T00:53:10.876Z,95355.39
2019-01-19T00:56:22.102Z,95352.03
2019-01-19T00:59:29.785Z,95351.77
2019-01-19T01:02:36.403Z,95351.13
2019-01-19T01:05:35.076Z,95351.78
2019-01-19T01:08:45.918Z,95339.08
2019-01-19T01:12:07.792Z,95340.50
2019-01-19T01:15:47.227Z,95335.91
2019-01-19T01:18:37.634Z,95341.33
2019-01-19T01:22:12.895Z,95335.84
2019-01-19T01:25:43.280Z,95332.66
2019-01-19T01:29:26.917Z,95333.82
2019-01-19T01:32:51.216Z,95331.83
2019-01-19T01:36:30.167Z,95323.36
2019-01-19T01:39:35.063Z,95334.27
2019-01-19T01:42:56.070Z,95324.02
2019-01-19T01:46:19.152Z,95325.66
2019-01-19T01:49:30.574Z,95326.81
2019-01-19T01:52:45.927Z,95326.69
2019-01-19T01:55:46.047Z,95327.47
2019-01-19T01:58:55.262Z,95325.07
2019-01-19T02:02:36.934Z,95321.84
2019-01-19T02:05:51.486Z,95323.69
2019-01-19T02:09:21.844Z,95326.04
2019-01-19T02:12:50.004Z,95320.14
2019-01-19T02:16:07.892Z,95319.92
2019-01-19T02:19:29.670Z,95316.55
2019-01-19T02:23:08.476Z,95317.49
2019-01-19T02:26:32.658Z,95314.05
2019-01-19T02:30:07.029Z,95318.34
2019-01-19T02:33:51.934Z,95311.38
2019-01-19T02:37:08.352Z,95313.52
2019-01-19T02:41:00.873Z,95310.26
2019-01-19T02:44:25.223Z,95308.92
2019-01-19T02:47:30.810Z,95300.56
2019-01-19T02:50:45.398Z,95305.80
2019-01-19T02:54:01.197Z,95297.39
2019-01-19T02:57:37.962Z,95304.07
2019-01-19T03:00:57.712Z,95295.86
2019-01-19T03:04:44.006Z,95294.47
2019-01-19T03:08:29.377Z,95296.23
2019-01-19T03:12:10.566Z,95285.89
2019-01-19T03:15:16.954Z,95291.40
2019-01-19T03:18:23.479Z,95297.78
2019-01-19T03:21:51.709Z,95294.69
2019-01-19T03:25:26.306Z,95296.33
2019-01-19T03:28:38.951Z,95300.36
2019-01-19T03:32:08.936Z,95294.47
2019-01-19T03:35:19.478Z,95295.66
2019-01-19T03:38:35.421Z,95299.43
2019-01-19T03:42:01.488Z,95294.52
2019-01-19T03:45:25.338Z,95295.12
2019-01-19T03:48:39.348Z,95295.98
2019-01-19T03:52:07.012Z,95296.48
2019-01-19T03:55:13.668Z,95288.95
2019-01-19T03:58:18.695Z,95293.45
2019-01-19T04:01:20.377Z,95292.23
2019-01-19T04:04:27.118Z,95292.53
2019-01-19T04:07:44.847Z,95297.32
2019-01-19T04:10:50.403Z,95288.12
2019-01-19T04:14:41.512Z,95282.48
2019-01-19T04:18:10.534Z,95281.58
2019-01-19T04:21:21.551Z,95282.94
2019-01-19T04:24:03.081Z,95281.32
2019-01-19T04:26:41.666Z,95275.87
2019-01-19T04:29:13.133Z,95282.05
2019-01-19T04:31:44.551Z,95277.50
2019-01-19T04:34:16.271Z,95284.66
2019-01-19T04:36:52.479Z,95278.72
2019-01-19T04:39:23.976Z,95282.69
2019-01-19T04:41:55.361Z,95291.19
2019-01-19T04:44:28.455Z,95290.95
2019-01-19T04:46:59.881Z,95284.65
2019-01-19T04:49:33.859Z,95281.48
2019-01-19T04:52:05.263Z,95289.06
2019-01-19T04:54:36.719Z,95285.76
2019-01-19T04:57:08.293Z,95289.81
2019-01-19T04:59:42.529Z,95287.85
2019-01-19T05:02:16.385Z,95282.64
2019-01-19T05:04:47.849Z,95279.72
2019-01-19T05:07:23.973Z,95286.99
2019-01-19T05:09:53.957Z,95285.58
2019-01-19T05:12:25.376Z,95282.70
2019-01-19T05:14:58.315Z,95279.08
2019-01-19T05:17:29.744Z,95283.19
2019-01-19T05:20:01.184Z,95282.00
2019-01-19T05:22:35.424Z,95287.09
2019-01-19T05:25:07.671Z,95284.98
2019-01-19T05:27:39.219Z,95283.19
2019-01-19T05:30:21.467Z,95285.21
2019-01-19T05:32:53.069Z,95282.61
2019-01-19T05:35:24.498Z,95290.52
2019-01-19T05:37:55.911Z,95293.17
2019-01-19T05:40:28.697Z,95284.22
2019-01-19T05:43:00.113Z,95288.82
2019-01-19T05:45:31.558Z,95280.65
2019-01-19T05:48:02.996Z,95292.59
2019-01-19T05:50:34.391Z,95287.71
2019-01-19T05:53:05.925Z,95285.22
2019-01-19T05:55:37.363Z,95291.79
2019-01-19T05:58:09.128Z,95283.47
2019-01-19T06:00:40.588Z,95273.67
2019-01-19T06:03:12.007Z,95279.49
2019-01-19T06:05:44.616Z,95279.30
2019-01-19T06:08:16.032Z,95292.47
2019-01-19T06:10:47.484Z,95285.54
2019-01-19T06:13:20.658Z,95286.28
2019-01-19T06:15:52.100Z,95277.93
2019-01-19T06:18:23.451Z,95281.84
2019-01-19T06:20:54.834Z,95287.73
2019-01-19T06:23:26.248Z,95287.30
2019-01-19T06:25:57.711Z,95285.75
2019-01-19T06:28:29.130Z,95283.36
2019-01-19T06:31:00.588Z,95283.81
2019-01-19T06:33:34.769Z,95283.64
2019-01-19T06:36:06.337Z,95280.84
2019-01-19T06:38:37.775Z,95291.63
2019-01-19T06:41:09.223Z,95287.71
2019-01-19T06:43:40.663Z,95293.91
2019-01-19T06:46:12.116Z,95280.47
2019-01-19T06:48:43.539Z,95288.93
2019-01-19T06:51:15.029Z,95290.11
2019-01-19T06:53:47.143Z,95295.06
2019-01-19T06:56:18.618Z,95290.09
2019-01-19T06:58:50.424Z,95291.21
2019-01-19T07:01:21.847Z,95299.94
2019-01-19T07:03:53.266Z,95298.91
2019-01-19T07:06:24.842Z,95295.31
2019-01-19T07:08:56.262Z,95297.41
2019-01-19T07:11:27.775Z,95297.60
2019-01-19T07:13:59.207Z,95292.52
2019-01-19T07:16:30.648Z,95298.54
2019-01-19T07:19:02.139Z,95298.02
2019-01-19T07:21:33.591Z,95298.93
2019-01-19T07:24:06.122Z,95300.22
2019-01-19T07:26:37.548Z,95302.89
2019-01-19T07:29:08.994Z,95308.44
2019-01-19T07:31:40.442Z,95307.88
2019-01-19T07:34:11.925Z,95311.44
2019-01-19T07:36:43.278Z,95307.16
2019-01-19T07:39:14.705Z,95312.53
2019-01-19T07:41:46.198Z,95308.26
2019-01-19T07:44:17.629Z,95316.05
2019-01-19T07:46:55.941Z,95313.09
2019-01-19T07:49:22.766Z,95311.47
2019-01-19T07:51:54.176Z,95320.97
2019-01-19T07:54:25.678Z,95320.83
2019-01-19T07:56:57.143Z,95319.95
2019-01-19T07:59:28.620Z,95324.80
2019-01-19T08:02:00.104Z,95326.25
2019-01-19T08:04:31.532Z,95326.22
2019-01-19T08:07:02.996Z,95325.26
2019-01-19T08:09:34.442Z,95330.44
2019-01-19T08:12:06.114Z,95329.40
2019-01-19T08:14:37.714Z,95328.11
2019-01-19T08:17:09.484Z,95331.49
2019-01-19T08:19:41.050Z,95330.54
2019-01-19T08:22:14.273Z,95325.48
2019-01-19T08:24:45.706Z,95324.34
2019-01-19T08:27:17.190Z,95323.00
2019-01-19T08:29:48.655Z,95321.44
2019-01-19T08:32:21.411Z,95325.03
2019-01-19T08:34:52.881Z,95322.19
2019-01-19T08:37:24.622Z,95316.27
2019-01-19T08:39:56.216Z,95317.76
2019-01-19T08:42:27.929Z,95323.53
2019-01-19T08:44:59.642Z,95316.05
2019-01-19T08:47:31.100Z,95322.48
2019-01-19T08:50:03.778Z,95319.75
2019-01-19T08:52:35.185Z,95318.96
2019-01-19T08:55:07.572Z,95320.61
2019-01-19T08:57:39.024Z,95324.47
2019-01-19T09:00:14.876Z,95321.70
2019-01-19T09:02:46.358Z,95315.59
2019-01-19T09:05:19.803Z,95315.92
2019-01-19T09:07:51.268Z,95319.45
2019-01-19T09:10:22.899Z,95318.69
2019-01-19T09:12:54.701Z,95320.87
2019-01-19T09:15:26.249Z,95309.92
2019-01-19T09:17:57.737Z,95310.02
2019-01-19T09:20:31.348Z,95313.91
2019-01-19T09:23:08.183Z,95318.03
2019-01-19T09:25:39.672Z,95305.20
2019-01-19T09:28:11.138Z,95316.09
2019-01-19T09:30:42.638Z,95316.50
2019-01-19T09:33:14.022Z,95315.26
2019-01-19T09:35:45.489Z,95325.97
2019-01-19T09:38:17.442Z,95309.83
2019-01-19T09:40:48.869Z,95312.95
2019-01-19T09:43:23.242Z,95295.25
2019-01-19T09:45:54.701Z,95301.60
2019-01-19T09:48:26.157Z,95298.49
2019-01-19T09:50:57.628Z,95296.23
2019-01-19T09:53:29.091Z,95296.28
2019-01-19T09:56:01.478Z,95292.97
2019-01-19T09:58:32.962Z,95295.17
2019-01-19T10:01:04.392Z,95297.92
2019-01-19T10:03:35.867Z,95302.20
2019-01-19T10:06:07.333Z,95300.70
2019-01-19T10:08:39.122Z,95294.16
2019-01-19T10:11:11.049Z,95298.63
2019-01-19T10:13:42.608Z,95292.14
2019-01-19T10:16:14.211Z,95290.69
2019-01-19T10:18:45.831Z,95283.80
2019-01-19T10:21:17.337Z,95282.64
2019-01-19T10:23:48.787Z,95287.76
2019-01-19T10:26:20.196Z,95279.30
2019-01-19T10:28:52.196Z,95283.76
2019-01-19T10:31:23.662Z,95271.08
2019-01-19T10:33:55.129Z,95272.98
2019-01-19T10:36:26.576Z,95270.43
2019-01-19T10:38:58.073Z,95271.65
2019-01-19T10:41:29.502Z,95268.45
2019-01-19T10:44:00.995Z,95267.04
2019-01-19T10:46:32.410Z,95266.73
2019-01-19T10:49:06.923Z,95264.12
2019-01-19T10:51:38.352Z,95262.92
2019-01-19T10:54:09.860Z,95259.38
2019-01-19T10:56:41.270Z,95255.68
2019-01-19T10:59:13.253Z,95249.86
2019-01-19T11:01:44.706Z,95252.14
2019-01-19T11:04:17.890Z,95247.41
2019-01-19T11:06:50.958Z,95243.13
2019-01-19T11:09:22.510Z,95241.77
2019-01-19T11:11:53.948Z,95244.40
2019-01-19T11:14:25.415Z,95240.95
2019-01-19T11:16:58.202Z,95240.95
2019-01-19T11:19:29.660Z,95232.47
2019-01-19T11:22:01.121Z,95232.36
2019-01-19T11:24:32.584Z,95228.95
2019-01-19T11:27:04.095Z,95221.86
2019-01-19T11:29:35.611Z,95214.97
2019-01-19T11:32:08.649Z,95223.51
2019-01-19T11:34:40.104Z,95224.43
2019-01-19T11:37:11.662Z,95208.64
2019-01-19T11:39:43.082Z,95212.94
2019-01-19T11:42:14.642Z,95209.80
2019-01-19T11:44:46.098Z,95208.95
2019-01-19T11:47:17.628Z,95193.66
2019-01-19T11:49:49.169Z,95195.88
2019-01-19T11:52:20.613Z,95184.45
2019-01-19T11:54:52.208Z,95176.73
2019-01-19T11:57:23.725Z,95183.77
2019-01-19T11:59:55.316Z,95171.90
2019-01-19T12:02:26.818Z,95176.30
2019-01-19T12:04:58.283Z,95180.26
2019-01-19T12:07:31.006Z,95171.19
2019-01-19T12:10:02.488Z,95173.03
2019-01-19T12:12:33.993Z,95169.54
2019-01-19T12:15:06.283Z,95165.17
2019-01-19T12:17:37.755Z,95162.19
2019-01-19T12:20:14.763Z,95162.84
2019-01-19T12:22:46.192Z,95159.17
2019-01-19T12:25:19.693Z,95155.89
2019-01-19T12:27:51.111Z,95156.41
2019-01-19T12:30:25.786Z,95149.19
2019-01-19T12:32:57.263Z,95147.55
2019-01-19T12:35:28.855Z,95139.92
2019-01-19T12:38:00.548Z,95139.48
2019-01-19T12:40:32.267Z,95134.30
2019-01-19T12:43:14.121Z,95137.01
2019-01-19T12:46:10.512Z,95136.03
2019-01-19T12:48:41.960Z,95137.45
2019-01-19T12:51:14.829Z,95134.24
2019-01-19T12:53:47.431Z,95137.53
2019-01-19T12:56:18.884Z,95130.87
2019-01-19T12:58:50.329Z,95125.05
2019-01-19T13:01:21.762Z,95129.25
2019-01-19T13:03:53.280Z,95119.72
2019-01-19T13:07:00.278Z,95129.27
2019-01-19T13:09:39.390Z,95123.02
2019-01-19T13:12:51.388Z,95113.80
2019-01-19T13:16:16.781Z,95110.77
2019-01-19T13:18:59.069Z,95105.30
2019-01-19T13:22:31.360Z,95107.42
2019-01-19T13:25:47.170Z,95103.75
2019-01-19T13:29:14.431Z,95096.95
2019-01-19T13:32:24.488Z,95101.56
2019-01-19T13:36:20.163Z,95095.03
2019-01-19T13:39:45.623Z,95096.02
2019-01-19T13:43:15.881Z,95099.73
2019-01-19T13:46:00.170Z,95093.35
2019-01-19T13:49:43.255Z,95094.80
2019-01-19T13:52:55.672Z,95093.37
2019-01-19T13:56:29.555Z,95095.50
2019-01-19T13:59:49.184Z,95090.95
2019-01-19T14:02:52.244Z,95077.74
2019-01-19T14:06:02.727Z,95077.33
2019-01-19T14:09:36.087Z,95082.58
2019-01-19T14:13:25.103Z,95078.52
2019-01-19T14:16:45.607Z,95074.72
2019-01-19T14:19:55.823Z,95077.73
2019-01-19T14:23:31.917Z,95067.57
2019-01-19T14:26:53.906Z,95068.42
2019-01-19T14:30:15.724Z,95066.64
2019-01-19T14:33:20.311Z,95061.52
2019-01-19T14:36:49.799Z,95063.34
2019-01-19T14:40:33.202Z,95061.63
2019-01-19T14:43:53.147Z,95066.97
2019-01-19T14:47:02.013Z,95058.31
2019-01-19T14:50:51.706Z,95058.55
2019-01-19T14:54:00.288Z,95050.14
2019-01-19T14:57:05.539Z,95054.78
2019-01-19T15:00:39.254Z,95049.25
2019-01-19T15:04:02.835Z,95050.19
2019-01-19T15:07:22.904Z,95046.58
2019-01-19T15:10:50.304Z,95049.64
2019-01-19T15:14:00.299Z,95050.89
2019-01-19T15:17:26.128Z,95047.73
2019-01-19T15:20:47.593Z,95042.52
2019-01-19T15:23:44.898Z,95038.94
2019-01-19T15:27:23.779Z,95034.82
2019-01-19T15:30:58.636Z,95035.41
2019-01-19T15:34:30.500Z,95038.30
2019-01-19T15:37:54.754Z,95039.02
2019-01-19T15:41:15.162Z,95038.50
2019-01-19T15:44:44.839Z,95030.00
2019-01-19T15:47:40.261Z,95026.96
2019-01-19T15:51:02.946Z,95024.02
2019-01-19T15:53:43.023Z,95035.61
2019-01-19T15:57:41.292Z,95027.55
2019-01-19T16:01:07.461Z,95038.69
2019-01-19T16:04:16.742Z,95039.11
2019-01-19T16:07:49.179Z,95042.08
2019-01-19T16:11:32.897Z,95037.00
2019-01-19T16:15:23.142Z,95045.50
2019-01-19T16:18:29.922Z,95040.48
2019-01-19T16:22:06.382Z,95037.33
2019-01-19T16:25:34.292Z,95035.81
2019-01-19T16:29:00.715Z,95030.42
2019-01-19T16:32:19.099Z,95032.94
2019-01-19T16:35:49.844Z,95036.69
2019-01-19T16:39:25.642Z,95034.38
2019-01-19T16:42:33.175Z,95035.61
2019-01-19T16:45:32.663Z,95041.80
2019-01-19T16:48:19.045Z,95039.58
2019-01-19T16:51:46.035Z,95031.84
2019-01-19T16:54:40.515Z,95028.06
2019-01-19T16:58:22.343Z,95034.27
2019-01-19T17:01:48.689Z,95028.48
2019-01-19T17:05:24.686Z,95028.95
2019-01-19T17:08:32.884Z,95037.92
2019-01-19T17:11:57.650Z,95040.18
2019-01-19T17:15:36.423Z,95031.81
2019-01-19T17:19:04.513Z,95030.48
2019-01-19T17:22:38.572Z,95035.41
2019-01-19T17:26:14.868Z,95033.77
2019-01-19T17:29:19.139Z,95045.19
2019-01-19T17:32:37.192Z,95044.77
2019-01-19T17:35:56.346Z,95037.53
2019-01-19T17:39:13.887Z,95041.23
2019-01-19T17:43:06.347Z,95036.58
2019-01-19T17:46:31.731Z,95035.88
2019-01-19T17:49:51.350Z,95036.04
2019-01-19T17:53:41.095Z,95031.70
2019-01-19T17:57:04.118Z,95040.63
2019-01-19T18:00:27.025Z,95039.35
2019-01-19T18:03:33.379Z,95033.19
2019-01-19T18:06:45.233Z,95031.78
2019-01-19T18:10:15.004Z,95026.28
2019-01-19T18:13:34.419Z,95026.75
2019-01-19T18:17:25.772Z,95028.54
2019-01-19T18:20:45.126Z,95028.73
2019-01-19T18:24:40.589Z,95020.70
2019-01-19T18:28:09.386Z,95023.03
2019-01-19T18:31:31.764Z,95024.53
2019-01-19T18:34:29.130Z,95025.12
2019-01-19T18:37:30.527Z,95024.95
2019-01-19T18:40:48.940Z,95023.95
2019-01-19T18:43:52.112Z,95016.09
2019-01-19T18:47:28.709Z,95019.79
2019-01-19T18:51:26.913Z,95020.71
2019-01-19T18:54:34.232Z,95020.48
2019-01-19T18:58:25.215Z,95015.55
2019-01-19T19:01:46.127Z,95017.01
2019-01-19T19:05:22.209Z,95010.24
2019-01-19T19:08:35.789Z,95021.63
2019-01-19T19:11:46.034Z,95018.50
2019-01-19T19:14:48.013Z,95011.72
2019-01-19T19:18:22.775Z,95010.00
2019-01-19T19:21:43.562Z,95005.06
2019-01-19T19:25:32.802Z,95010.52
2019-01-19T19:28:49.473Z,95008.67
2019-01-19T19:32:20.022Z,95012.12
2019-01-19T19:35:23.254Z,95008.70
2019-01-19T19:38:45.456Z,95000.60
2019-01-19T19:42:20.366Z,95005.23
2019-01-19T19:45:36.193Z,95006.69
2019-01-19T19:48:43.597Z,95010.64
2019-01-19T19:52:03.820Z,95006.59
2019-01-19T19:54:36.449Z,95006.89
2019-01-19T19:57:07.983Z,95007.88
2019-01-19T19:59:39.584Z,95004.58
2019-01-19T20:02:11.304Z,95007.51
2019-01-19T20:04:42.916Z,95008.34
2019-01-19T20:07:14.935Z,95004.99
2019-01-19T20:09:46.658Z,95013.03
2019-01-19T20:12:18.195Z,95003.39
2019-01-19T20:14:49.707Z,95002.95
2019-01-19T20:17:21.372Z,95006.94
2019-01-19T20:19:53.057Z,94997.09
2019-01-19T20:22:24.563Z,94999.95
2019-01-19T20:24:56.140Z,95002.59
2019-01-19T20:27:27.584Z,95000.39
2019-01-19T20:29:59.085Z,95007.19
2019-01-19T20:32:30.645Z,95005.52
2019-01-19T20:35:02.191Z,95002.83
2019-01-19T20:37:33.758Z,95006.53
2019-01-19T20:40:06.274Z,95005.23
2019-01-19T20:42:37.742Z,95006.02
2019-01-19T20:45:11.347Z,95005.30
2019-01-19T20:47:42.877Z,95007.78
2019-01-19T20:50:14.617Z,94999.66
2019-01-19T20:52:46.169Z,95003.91
2019-01-19T20:55:17.646Z,95005.93
2019-01-19T20:57:49.025Z,95007.76
2019-01-19T21:00:20.660Z,95013.06
2019-01-19T21:02:53.446Z,95003.83
2019-01-19T21:05:24.915Z,95009.92
2019-01-19T21:07:56.505Z,95020.58
2019-01-19T21:10:31.851Z,95019.59
2019-01-19T21:13:01.272Z,95014.01
2019-01-19T21:15:33.839Z,95013.83
2019-01-19T21:18:05.372Z,95016.99
2019-01-19T21:20:37.911Z,95027.27
2019-01-19T21:23:09.373Z,95020.55
2019-01-19T21:25:40.914Z,95021.02
2019-01-19T21:28:12.342Z,95019.47
2019-01-19T21:30:43.928Z,95020.76
2019-01-19T21:33:15.371Z,95021.25
2019-01-19T21:35:46.841Z,95011.22
2019-01-19T21:38:20.720Z,95018.71
2019-01-19T21:40:52.184Z,95016.15
2019-01-19T21:43:23.647Z,95012.66
2019-01-19T21:45:55.117Z,95012.77
2019-01-19T21:48:26.575Z,95009.37
2019-01-19T21:50:58.050Z,95013.03
2019-01-19T21:53:31.012Z,95011.93
2019-01-19T21:56:02.461Z,95018.75
2019-01-19T21:58:33.927Z,95028.65
2019-01-19T22:01:05.394Z,95026.02
2019-01-19T22:03:42.913Z,95032.27
2019-01-19T22:06:14.580Z,95031.42
2019-01-19T22:08:46.022Z,95025.34
2019-01-19T22:11:17.503Z,95027.31
2019-01-19T22:13:50.554Z,95024.92
2019-01-19T22:16:22.095Z,95029.35
2019-01-19T22:18:53.571Z,95033.83
2019-01-19T22:21:26.334Z,95028.44
2019-01-19T22:23:57.752Z,95017.17
2019-01-19T22:26:29.586Z,95022.75
2019-01-19T22:29:01.025Z,95014.98
2019-01-19T22:31:32.516Z,95030.89
2019-01-19T22:34:03.934Z,95030.52
2019-01-19T22:36:35.394Z,95030.89
2019-01-19T22:39:08.951Z,95030.94
2019-01-19T22:41:40.415Z,95031.00
2019-01-19T22:44:11.848Z,95031.47
2019-01-19T22:46:43.290Z,95031.45
2019-01-19T22:49:14.761Z,95026.46
2019-01-19T22:51:47.057Z,95025.92
2019-01-19T22:54:18.530Z,95030.13
2019-01-19T22:56:49.980Z,95029.34
2019-01-19T22:59:21.399Z,95027.50
2019-01-19T23:02:10.784Z,95035.73
2019-01-19T23:04:42.298Z,95028.41
2019-01-19T23:07:13.828Z,95028.23
2019-01-19T23:09:45.277Z,95025.88
2019-01-19T23:12:16.774Z,95014.05
2019-01-19T23:14:48.574Z,95017.36
2019-01-19T23:17:20.115Z,95020.10
2019-01-19T23:19:51.566Z,95020.61
2019-01-19T23:22:24.300Z,95023.36
2019-01-19T23:24:56.021Z,95020.96
2019-01-19T23:27:27.473Z,95023.75
2019-01-19T23:29:58.907Z,95017.66
2019-01-19T23:32:30.395Z,95019.20
2019-01-19T23:35:01.838Z,95021.22
2019-01-19T23:37:33.284Z,95021.22
2019-01-19T23:40:05.325Z,95017.03
2019-01-19T23:42:36.858Z,95012.81
2019-01-19T23:45:08.406Z,95008.36
2019-01-19T23:47:39.962Z,95004.61
2019-01-19T23:50:12.589Z,95008.66
2019-01-19T23:52:45.360Z,95011.32
2019-01-19T23:55:19.058Z,95006.98
2019-01-19T23:57:51.031Z,94999.32
